Time;durP1;ratioP1;P1;durP2;ratioP2;P2;SDS_P1;SDS_P2;PMS_P1;PMS_P2;Temp;Humidity;BMP_temperature;BMP_pressure;BME280_temperature;BME280_humidity;BME280_pressure;Samples;Min_cycle;Max_cycle;Signal;HPM_P1;HPM_P2
2023/01/01 00:01:15;;;;;;;25.98;23.33;;;16.30;78.00;;;;;;5048707;28;20028;-84
2023/01/01 00:03:42;;;;;;;23.92;21.60;;;16.30;78.00;;;;;;5014859;28;20552;-83
2023/01/01 00:06:10;;;;;;;23.60;21.27;;;16.30;78.00;;;;;;5032180;28;20060;-84
2023/01/01 00:08:36;;;;;;;24.65;22.27;;;16.40;78.00;;;;;;5047663;28;20033;-84
2023/01/01 00:11:04;;;;;;;22.15;19.98;;;16.30;78.00;;;;;;5048003;28;20107;-85
2023/01/01 00:13:30;;;;;;;23.23;20.92;;;16.40;78.00;;;;;;5045925;28;20052;-85
2023/01/01 00:15:56;;;;;;;22.85;20.58;;;16.30;78.00;;;;;;5049093;28;20597;-86
2023/01/01 00:18:21;;;;;;;21.10;19.02;;;16.40;78.00;;;;;;5048452;28;20115;-85
2023/01/01 00:20:47;;;;;;;21.25;19.10;;;16.40;78.00;;;;;;5047088;28;20019;-84
2023/01/01 00:23:13;;;;;;;19.92;17.85;;;16.40;78.00;;;;;;5046602;28;21271;-86
2023/01/01 00:25:39;;;;;;;19.35;17.48;;;16.40;78.00;;;;;;5050099;28;20029;-85
2023/01/01 00:28:05;;;;;;;18.42;16.42;;;16.40;78.00;;;;;;5015974;28;20656;-83
2023/01/01 00:30:31;;;;;;;18.10;16.23;;;16.40;78.00;;;;;;5054496;28;20032;-83
2023/01/01 00:32:57;;;;;;;17.00;15.30;;;16.40;78.00;;;;;;5050563;28;20537;-85
2023/01/01 00:35:24;;;;;;;15.75;14.20;;;16.40;78.00;;;;;;5048323;28;20036;-83
2023/01/01 00:37:50;;;;;;;15.20;13.75;;;16.40;78.00;;;;;;5033968;28;20039;-85
2023/01/01 00:40:17;;;;;;;14.70;13.25;;;16.40;78.00;;;;;;5051454;28;20041;-85
2023/01/01 00:42:43;;;;;;;15.65;13.00;;;16.40;78.00;;;;;;5039012;28;20107;-86
2023/01/01 00:45:09;;;;;;;14.75;12.23;;;16.40;77.90;;;;;;5018600;28;20129;-84
2023/01/01 00:47:35;;;;;;;13.70;12.30;;;16.40;77.90;;;;;;5018552;28;20033;-86
2023/01/01 00:50:01;;;;;;;12.43;11.07;;;16.40;77.90;;;;;;5053054;28;20484;-83
2023/01/01 00:52:26;;;;;;;12.02;10.80;;;16.40;77.90;;;;;;5021587;28;20029;-81
2023/01/01 00:54:52;;;;;;;11.55;10.10;;;16.40;77.90;;;;;;5042573;28;20044;-83
2023/01/01 00:57:18;;;;;;;11.63;9.88;;;16.40;77.90;;;;;;5017169;28;20068;-83
2023/01/01 00:59:44;;;;;;;11.82;9.70;;;16.50;77.90;;;;;;5051558;28;20412;-85
2023/01/01 01:02:09;;;;;;;9.05;8.15;;;16.50;77.90;;;;;;5052993;28;20494;-85
2023/01/01 01:04:35;;;;;;;9.02;7.93;;;16.50;77.90;;;;;;5053458;28;20029;-86
2023/01/01 01:07:01;;;;;;;9.48;7.90;;;16.50;77.90;;;;;;5056911;28;20025;-85
2023/01/01 01:09:27;;;;;;;9.05;7.60;;;16.50;77.90;;;;;;5032052;28;20120;-83
2023/01/01 01:11:52;;;;;;;7.47;6.57;;;16.50;77.90;;;;;;5054304;28;20039;-84
2023/01/01 01:14:18;;;;;;;8.32;6.78;;;16.50;77.80;;;;;;5030941;28;20160;-85
2023/01/01 01:16:44;;;;;;;9.45;6.63;;;16.50;77.80;;;;;;5082759;28;20488;-85
2023/01/01 01:19:14;;;;;;;7.35;6.10;;;16.50;77.90;;;;;;5014744;28;20477;-85
2023/01/01 01:21:40;;;;;;;6.97;6.00;;;16.50;77.90;;;;;;5032296;28;20029;-85
2023/01/01 01:24:06;;;;;;;7.13;5.25;;;16.50;77.80;;;;;;5049123;28;20473;-83
2023/01/01 01:26:35;;;;;;;7.10;5.63;;;16.50;77.80;;;;;;5048236;28;20521;-84
2023/01/01 01:29:01;;;;;;;6.72;5.10;;;16.50;77.80;;;;;;5049767;28;20029;-84
2023/01/01 01:31:30;;;;;;;7.10;5.03;;;16.50;77.80;;;;;;5050344;28;20050;-85
2023/01/01 01:33:56;;;;;;;6.05;4.95;;;16.50;77.80;;;;;;5044922;28;20033;-82
2023/01/01 01:36:22;;;;;;;5.78;4.53;;;16.50;77.80;;;;;;5079715;28;20029;-84
2023/01/01 01:38:48;;;;;;;6.13;4.57;;;16.50;78.30;;;;;;5041748;28;20076;-84
2023/01/01 01:41:15;;;;;;;5.88;3.83;;;16.50;77.70;;;;;;5048313;28;20115;-84
2023/01/01 01:43:41;;;;;;;6.43;4.20;;;16.50;77.70;;;;;;5045375;28;20028;-85
2023/01/01 01:46:14;;;;;;;5.72;3.85;;;16.50;77.60;;;;;;5050965;28;20029;-84
2023/01/01 01:48:44;;;;;;;5.38;3.40;;;16.50;77.60;;;;;;5044962;28;20086;-83
2023/01/01 01:51:13;;;;;;;5.63;3.35;;;16.50;77.60;;;;;;5050869;28;20029;-85
2023/01/01 01:53:43;;;;;;;4.03;2.97;;;16.50;77.60;;;;;;5050272;28;20094;-84
2023/01/01 01:56:23;;;;;;;5.95;3.08;;;16.50;77.60;;;;;;5052644;28;20807;-84
2023/01/01 01:58:49;;;;;;;5.65;3.20;;;16.50;77.60;;;;;;5051163;28;20029;-84
2023/01/01 02:01:15;;;;;;;4.00;2.90;;;16.50;77.60;;;;;;5051012;28;20021;-85
2023/01/01 02:03:59;;;;;;;4.45;2.90;;;16.50;77.60;;;;;;5055320;28;20024;-83
2023/01/01 02:06:31;;;;;;;4.68;2.72;;;16.50;77.60;;;;;;5047863;28;20029;-85
2023/01/01 02:08:59;;;;;;;5.00;2.70;;;16.60;77.60;;;;;;5051244;28;20021;-84
2023/01/01 02:11:25;;;;;;;3.80;2.65;;;16.50;77.60;;;;;;5053089;28;20062;-84
2023/01/01 02:13:52;;;;;;;4.30;2.40;;;16.50;77.60;;;;;;5049917;28;20453;-84
2023/01/01 02:16:43;;;;;;;4.30;2.50;;;16.60;77.60;;;;;;5048446;28;20033;-84
2023/01/01 02:19:28;;;;;;;3.20;2.30;;;16.60;77.60;;;;;;5047929;28;20120;-83
2023/01/01 02:22:13;;;;;;;2.37;1.97;;;16.60;77.60;;;;;;5045381;28;20025;-84
2023/01/01 02:25:11;;;;;;;3.70;2.38;;;16.50;77.50;;;;;;5048417;28;20210;-84
2023/01/01 02:27:49;;;;;;;3.17;2.00;;;16.60;77.60;;;;;;5046222;28;20476;-85
2023/01/01 02:30:16;;;;;;;3.63;2.30;;;16.50;77.60;;;;;;5042944;28;20060;-84
2023/01/01 02:32:45;;;;;;;3.28;2.05;;;16.50;77.50;;;;;;5034700;28;20025;-84
2023/01/01 02:35:34;;;;;;;4.05;2.30;;;16.50;77.60;;;;;;5050577;28;20549;-84
2023/01/01 02:38:28;;;;;;;3.80;2.25;;;16.60;77.60;;;;;;5065740;28;20155;-83
2023/01/01 02:41:01;;;;;;;3.97;1.80;;;16.50;77.60;;;;;;5047574;28;20049;-84
2023/01/01 02:43:27;;;;;;;3.28;2.10;;;16.60;77.60;;;;;;5037196;28;20090;-84
2023/01/01 02:45:54;;;;;;;2.35;2.10;;;16.60;77.60;;;;;;5033077;28;20029;-84
2023/01/01 02:48:38;;;;;;;2.70;1.80;;;16.60;77.60;;;;;;5050848;28;20075;-84
2023/01/01 02:51:13;;;;;;;2.73;1.80;;;16.60;77.70;;;;;;5079574;28;20458;-83
2023/01/01 02:54:17;;;;;;;2.65;1.88;;;16.60;77.60;;;;;;5037459;28;20051;-83
2023/01/01 02:57:10;;;;;;;2.70;1.70;;;16.50;77.60;;;;;;5049100;28;20584;-84
2023/01/01 03:03:05;;;;;;;3.35;1.90;;;16.60;77.60;;;;;;5051116;28;20033;-83
2023/01/01 03:08:51;;;;;;;2.17;1.60;;;16.50;77.60;;;;;;5047582;28;20104;-83
2023/01/01 03:11:21;;;;;;;3.58;1.83;;;16.60;77.60;;;;;;5051792;28;20032;-83
2023/01/01 03:13:49;;;;;;;3.33;1.80;;;16.50;77.60;;;;;;5052877;28;20028;-83
2023/01/01 03:16:30;;;;;;;2.75;1.83;;;16.60;77.60;;;;;;5037087;28;20504;-82
2023/01/01 03:19:10;;;;;;;2.70;1.77;;;16.60;77.70;;;;;;5049432;28;20025;-82
2023/01/01 03:22:00;;;;;;;2.08;1.63;;;16.60;77.60;;;;;;5066637;28;20496;-84
2023/01/01 03:24:52;;;;;;;4.53;1.77;;;16.50;77.60;;;;;;5048519;28;20037;-83
2023/01/01 03:27:27;;;;;;;3.30;1.85;;;16.60;77.60;;;;;;5053092;28;20461;-83
2023/01/01 03:29:55;;;;;;;;;;;16.60;77.60;;;;;;5034678;28;20162;-84
2023/01/01 03:35:22;;;;;;;2.08;1.42;;;16.60;77.60;;;;;;5060449;28;20033;-84
2023/01/01 03:37:51;;;;;;;2.95;1.80;;;16.50;77.50;;;;;;5053102;28;20036;-84
2023/01/01 03:40:18;;;;;;;3.00;2.10;;;16.60;77.60;;;;;;5051736;28;20128;-84
2023/01/01 03:42:53;;;;;;;2.28;1.60;;;16.50;77.50;;;;;;5049645;28;20029;-83
2023/01/01 03:45:27;;;;;;;1.73;1.40;;;16.60;77.60;;;;;;5051545;28;20025;-84
2023/01/01 03:47:54;;;;;;;2.25;1.70;;;16.60;77.60;;;;;;5050359;28;20036;-86
2023/01/01 03:50:27;;;;;;;1.80;1.70;;;16.60;77.60;;;;;;5039031;28;20029;-85
2023/01/01 03:53:15;;;;;;;2.50;1.70;;;16.60;77.60;;;;;;5056827;28;20067;-86
2023/01/01 03:55:48;;;;;;;1.98;1.60;;;16.60;77.60;;;;;;5054705;28;20106;-86
2023/01/01 03:58:23;;;;;;;2.63;1.88;;;16.60;77.60;;;;;;5071885;28;20036;-85
2023/01/01 04:00:59;;;;;;;2.08;1.67;;;16.60;77.50;;;;;;5054946;28;20029;-85
2023/01/01 04:03:27;;;;;;;2.65;1.70;;;16.60;77.50;;;;;;5055352;28;20095;-85
2023/01/01 04:05:53;;;;;;;1.95;1.63;;;16.60;77.50;;;;;;5038135;28;20474;-86
2023/01/01 04:08:19;;;;;;;1.77;1.60;;;16.60;77.50;;;;;;5038437;28;20029;-86
2023/01/01 04:10:50;;;;;;;4.47;1.58;;;16.60;77.50;;;;;;5054894;28;20033;-85
2023/01/01 04:13:16;;;;;;;2.83;1.90;;;16.60;77.50;;;;;;5054921;28;20087;-85
2023/01/01 04:15:42;;;;;;;2.33;1.40;;;16.60;77.50;;;;;;5055260;28;20029;-85
2023/01/01 04:18:08;;;;;;;2.75;1.80;;;16.60;77.50;;;;;;5038835;28;20028;-86
2023/01/01 04:20:33;;;;;;;2.90;1.63;;;16.60;77.50;;;;;;5055104;28;20389;-85
2023/01/01 04:23:00;;;;;;;1.70;1.50;;;16.60;77.50;;;;;;5038441;28;20443;-87
2023/01/01 04:25:27;;;;;;;1.50;1.40;;;16.60;77.50;;;;;;5055261;28;20032;-86
2023/01/01 04:27:57;;;;;;;2.40;1.45;;;16.60;77.40;;;;;;5054699;28;20029;-84
2023/01/01 04:30:23;;;;;;;2.05;1.60;;;16.60;77.40;;;;;;5054827;28;20377;-85
2023/01/01 04:32:49;;;;;;;2.58;1.52;;;16.50;77.30;;;;;;5054233;28;20477;-85
2023/01/01 04:35:15;;;;;;;3.35;1.80;;;16.60;77.40;;;;;;5056027;28;20068;-85
2023/01/01 04:37:42;;;;;;;2.85;1.95;;;16.60;77.30;;;;;;5071706;28;20115;-85
2023/01/01 04:40:10;;;;;;;2.95;1.55;;;16.60;77.40;;;;;;5054296;28;20087;-86
2023/01/01 04:42:36;;;;;;;2.03;1.30;;;16.60;77.30;;;;;;5087883;28;20024;-86
2023/01/01 04:45:02;;;;;;;2.75;1.80;;;16.50;77.30;;;;;;5038010;28;20432;-86
2023/01/01 04:47:28;;;;;;;2.35;1.52;;;16.50;77.20;;;;;;5054343;28;20044;-84
2023/01/01 04:49:54;;;;;;;2.33;1.55;;;16.60;77.30;;;;;;5070818;28;20605;-86
2023/01/01 04:52:20;;;;;;;2.15;1.55;;;16.60;77.30;;;;;;5054399;28;20017;-86
2023/01/01 04:54:46;;;;;;;2.10;1.52;;;16.60;77.30;;;;;;5069708;28;20053;-85
2023/01/01 04:57:12;;;;;;;1.55;1.40;;;16.50;77.20;;;;;;5037866;28;20036;-85
2023/01/01 04:59:38;;;;;;;2.38;1.55;;;16.60;77.20;;;;;;5070380;28;20119;-85
2023/01/01 05:02:05;;;;;;;2.30;1.42;;;16.50;77.20;;;;;;5053879;28;20036;-85
2023/01/01 05:04:31;;;;;;;3.28;1.45;;;16.50;77.20;;;;;;5087992;28;20029;-85
2023/01/01 05:06:57;;;;;;;1.75;1.45;;;16.60;77.20;;;;;;5054239;28;20044;-86
2023/01/01 05:09:22;;;;;;;2.90;1.67;;;16.50;77.20;;;;;;5087369;28;20142;-85
2023/01/01 05:11:48;;;;;;;2.58;1.60;;;16.50;77.10;;;;;;5037137;28;20033;-86
2023/01/01 05:14:14;;;;;;;1.90;1.40;;;16.50;77.10;;;;;;5054229;28;20047;-85
2023/01/01 05:16:40;;;;;;;2.45;1.55;;;16.50;77.10;;;;;;5037492;28;20377;-85
2023/01/01 05:19:06;;;;;;;2.50;1.63;;;16.50;77.10;;;;;;5037763;28;20029;-86
2023/01/01 05:21:39;;;;;;;2.55;1.45;;;16.60;77.10;;;;;;5037108;28;20478;-85
2023/01/01 05:24:07;;;;;;;2.00;1.40;;;16.50;77.10;;;;;;5054210;28;20051;-86
2023/01/01 05:26:36;;;;;;;2.30;1.50;;;16.60;77.80;;;;;;5070570;28;20051;-85
2023/01/01 05:29:02;;;;;;;2.33;1.40;;;16.60;77.10;;;;;;5053363;28;20029;-86
2023/01/01 05:31:33;;;;;;;2.08;1.50;;;16.50;77.10;;;;;;5053450;28;20515;-85
2023/01/01 05:33:59;;;;;;;1.85;1.50;;;16.50;77.10;;;;;;5086953;28;20029;-85
2023/01/01 05:36:30;;;;;;;2.17;1.50;;;16.50;77.10;;;;;;5037520;28;20106;-86
2023/01/01 05:38:57;;;;;;;1.80;1.35;;;16.50;77.10;;;;;;5055871;28;20025;-85
2023/01/01 05:41:23;;;;;;;2.90;1.45;;;16.60;77.10;;;;;;5053267;28;20028;-86
2023/01/01 05:43:50;;;;;;;2.38;1.55;;;16.50;77.10;;;;;;5053248;28;20041;-85
2023/01/01 05:46:21;;;;;;;1.85;1.50;;;16.50;77.10;;;;;;5053478;28;20480;-86
2023/01/01 05:48:48;;;;;;;2.05;1.40;;;16.50;77.10;;;;;;5053619;28;20120;-85
2023/01/01 05:51:16;;;;;;;2.55;1.30;;;16.50;77.10;;;;;;5054183;28;20025;-86
2023/01/01 05:53:43;;;;;;;2.95;1.30;;;16.50;77.10;;;;;;5052947;28;20077;-86
2023/01/01 05:56:09;;;;;;;2.38;1.40;;;16.50;77.00;;;;;;5054046;28;20526;-83
2023/01/01 05:58:35;;;;;;;2.42;1.33;;;16.50;77.00;;;;;;5053714;28;20028;-85
2023/01/01 06:01:26;;;;;;;2.00;1.30;;;16.50;77.00;;;;;;5036489;28;20026;-85
2023/01/01 06:03:56;;;;;;;1.65;1.35;;;16.50;77.10;;;;;;5033680;28;20037;-85
2023/01/01 06:06:25;;;;;;;1.67;1.20;;;16.50;77.00;;;;;;5036499;28;20033;-86
2023/01/01 06:08:53;;;;;;;3.30;1.30;;;16.50;77.00;;;;;;5053318;28;20051;-87
2023/01/01 06:11:22;;;;;;;1.17;1.08;;;16.50;77.00;;;;;;5053130;28;20025;-86
2023/01/01 06:13:51;;;;;;;2.15;1.13;;;16.50;77.00;;;;;;5053153;28;20021;-86
2023/01/01 06:16:17;;;;;;;1.90;1.50;;;16.50;77.00;;;;;;5052994;28;20029;-87
2023/01/01 06:18:43;;;;;;;2.15;1.35;;;16.50;77.00;;;;;;5036136;28;20029;-87
2023/01/01 06:21:18;;;;;;;2.92;1.40;;;16.50;77.00;;;;;;5053264;28;20029;-87
2023/01/01 06:23:45;;;;;;;2.05;1.40;;;16.50;77.00;;;;;;5069893;28;20032;-86
2023/01/01 06:26:16;;;;;;;2.35;1.30;;;16.50;77.00;;;;;;5053853;28;20021;-86
2023/01/01 06:28:43;;;;;;;1.35;1.20;;;16.50;77.00;;;;;;5053064;28;20025;-85
2023/01/01 06:31:10;;;;;;;2.72;1.20;;;16.50;77.00;;;;;;5052610;28;20032;-86
2023/01/01 06:33:37;;;;;;;1.58;1.35;;;16.50;77.00;;;;;;5069061;28;20090;-86
2023/01/01 06:36:05;;;;;;;2.22;1.20;;;16.50;77.00;;;;;;5052959;28;20036;-86
2023/01/01 06:38:32;;;;;;;1.70;1.20;;;16.50;77.00;;;;;;5052812;28;20033;-85
2023/01/01 06:41:01;;;;;;;2.38;1.25;;;16.50;77.10;;;;;;5086366;28;20073;-87
2023/01/01 06:43:29;;;;;;;1.73;1.30;;;16.40;77.00;;;;;;5052866;28;20033;-86
2023/01/01 06:46:25;;;;;;;1.30;1.20;;;16.40;77.00;;;;;;5052866;28;20052;-86
2023/01/01 06:49:00;;;;;;;1.40;1.30;;;16.50;77.10;;;;;;5052771;28;20075;-86
2023/01/01 06:51:29;;;;;;;1.73;1.30;;;16.50;77.00;;;;;;5069084;28;20029;-86
2023/01/01 06:53:58;;;;;;;2.47;1.20;;;16.40;77.00;;;;;;5052021;28;20110;-87
2023/01/01 06:56:24;;;;;;;1.67;1.13;;;16.40;77.00;;;;;;5052512;28;20063;-85
2023/01/01 06:58:50;;;;;;;1.15;1.05;;;16.40;76.90;;;;;;5069246;28;20041;-85
2023/01/01 07:01:18;;;;;;;1.23;1.08;;;16.40;77.00;;;;;;5069227;28;20192;-86
2023/01/01 07:03:52;;;;;;;2.90;1.23;;;16.40;77.00;;;;;;5053514;28;20040;-86
2023/01/01 07:06:18;;;;;;;2.10;1.30;;;16.40;77.00;;;;;;5053304;28;20472;-86
2023/01/01 07:08:44;;;;;;;1.88;1.17;;;16.40;77.00;;;;;;5052614;28;20027;-86
2023/01/01 07:11:10;;;;;;;2.08;1.23;;;16.40;77.00;;;;;;5069168;28;20213;-86
2023/01/01 07:13:36;;;;;;;1.88;1.40;;;16.40;76.90;;;;;;5052575;28;20029;-87
2023/01/01 07:16:02;;;;;;;1.80;1.27;;;16.40;76.90;;;;;;5035832;28;20086;-87
2023/01/01 07:18:28;;;;;;;1.60;1.13;;;16.30;76.90;;;;;;5073441;28;20061;-85
2023/01/01 07:20:59;;;;;;;1.27;1.10;;;16.40;76.90;;;;;;5056101;28;20507;-85
2023/01/01 07:23:26;;;;;;;1.50;1.05;;;16.30;76.90;;;;;;5056094;28;20037;-86
2023/01/01 07:25:53;;;;;;;1.73;1.10;;;16.40;76.90;;;;;;5055925;28;20021;-86
2023/01/01 07:28:20;;;;;;;2.10;1.30;;;16.30;76.90;;;;;;5039639;28;20040;-87
2023/01/01 07:30:47;;;;;;;1.25;1.10;;;16.30;76.90;;;;;;5055879;28;20064;-86
2023/01/01 07:33:17;;;;;;;1.23;0.90;;;16.30;76.90;;;;;;5039257;28;20036;-86
2023/01/01 07:35:44;;;;;;;1.17;1.00;;;16.30;76.90;;;;;;5055789;28;20033;-86
2023/01/01 07:38:10;;;;;;;1.05;1.00;;;16.30;76.90;;;;;;5055979;28;20021;-86
2023/01/01 07:40:36;;;;;;;1.00;0.90;;;16.30;76.90;;;;;;5055554;28;20033;-86
2023/01/01 07:43:01;;;;;;;1.17;0.90;;;16.20;76.90;;;;;;5072054;28;20471;-86
2023/01/01 07:45:27;;;;;;;1.20;0.95;;;16.20;76.80;;;;;;5039458;28;20431;-86
2023/01/01 07:47:55;;;;;;;1.88;1.10;;;16.20;76.90;;;;;;5072709;28;20442;-87
2023/01/01 07:50:26;;;;;;;1.00;1.00;;;16.20;76.80;;;;;;5088979;28;20087;-86
2023/01/01 07:52:51;;;;;;;1.15;1.00;;;16.20;76.80;;;;;;5072486;28;20033;-86
2023/01/01 07:55:19;;;;;;;0.88;0.88;;;16.20;76.90;;;;;;5055049;28;20051;-86
2023/01/01 07:57:46;;;;;;;1.30;0.85;;;16.20;76.90;;;;;;5054675;28;20021;-85
2023/01/01 08:00:15;;;;;;;1.35;0.85;;;16.10;76.80;;;;;;5056057;28;20029;-85
2023/01/01 08:02:42;;;;;;;1.75;1.00;;;16.10;76.80;;;;;;5055354;28;20421;-85
2023/01/01 08:05:08;;;;;;;1.48;1.20;;;16.10;76.80;;;;;;5056886;28;20025;-86
2023/01/01 08:07:34;;;;;;;1.08;0.90;;;16.10;76.80;;;;;;5055737;28;20035;-86
2023/01/01 08:10:00;;;;;;;1.35;1.00;;;16.10;76.80;;;;;;5071514;28;20037;-88
2023/01/01 08:12:26;;;;;;;0.95;0.88;;;16.00;76.80;;;;;;5071337;28;20032;-86
2023/01/01 08:14:52;;;;;;;1.15;0.90;;;16.10;76.90;;;;;;5054706;28;20401;-85
2023/01/01 08:17:18;;;;;;;1.33;1.15;;;16.00;76.80;;;;;;5038797;28;20036;-85
2023/01/01 08:19:43;;;;;;;1.20;1.10;;;16.00;76.80;;;;;;5071415;28;20426;-85
2023/01/01 08:22:10;;;;;;;2.60;1.27;;;16.00;76.80;;;;;;5055276;28;20148;-85
2023/01/01 08:24:36;;;;;;;1.02;0.90;;;15.90;76.80;;;;;;5054811;28;20083;-86
2023/01/01 08:27:01;;;;;;;0.95;0.95;;;16.00;76.90;;;;;;5054820;28;20033;-85
2023/01/01 08:29:30;;;;;;;2.92;0.88;;;15.90;76.90;;;;;;5054491;28;20025;-85
2023/01/01 08:31:56;;;;;;;1.48;0.98;;;15.90;76.80;;;;;;5071967;28;20083;-88
2023/01/01 08:34:21;;;;;;;2.38;0.90;;;15.90;76.80;;;;;;5037304;28;20040;-84
2023/01/01 08:36:47;;;;;;;1.88;1.10;;;15.90;76.90;;;;;;5070328;28;20458;-84
2023/01/01 08:39:13;;;;;;;1.20;1.10;;;15.90;76.90;;;;;;5037373;28;20159;-85
2023/01/01 08:41:38;;;;;;;1.77;1.10;;;15.80;76.80;;;;;;5070537;28;20036;-84
2023/01/01 08:44:04;;;;;;;3.15;1.00;;;15.80;76.80;;;;;;5070492;28;20047;-84
2023/01/01 08:46:30;;;;;;;1.35;1.15;;;15.80;76.80;;;;;;5054232;28;20348;-84
2023/01/01 08:48:56;;;;;;;0.90;0.85;;;15.80;76.80;;;;;;5087802;28;20040;-85
2023/01/01 08:51:21;;;;;;;0.90;0.80;;;15.70;76.80;;;;;;5037777;28;20021;-84
2023/01/01 08:53:47;;;;;;;1.02;0.82;;;15.70;76.90;;;;;;5054142;28;20098;-85
2023/01/01 08:56:14;;;;;;;0.95;0.93;;;15.70;76.80;;;;;;5070982;28;20076;-84
2023/01/01 08:58:41;;;;;;;1.40;1.00;;;15.70;76.80;;;;;;5070455;28;20200;-89
2023/01/01 09:01:08;;;;;;;2.47;1.20;;;15.70;76.90;;;;;;5054961;28;20029;-85
2023/01/01 09:03:37;;;;;;;1.38;0.90;;;15.70;76.90;;;;;;5070507;28;20063;-87
2023/01/01 09:06:03;;;;;;;0.90;0.90;;;15.70;76.80;;;;;;5055278;28;20025;-87
2023/01/01 09:08:29;;;;;;;1.75;1.30;;;15.60;76.80;;;;;;5070619;28;20028;-87
2023/01/01 09:11:02;;;;;;;1.52;1.00;;;15.60;76.80;;;;;;5070407;28;20021;-86
2023/01/01 09:13:28;;;;;;;1.65;1.00;;;15.60;76.80;;;;;;5053846;28;20040;-87
2023/01/01 09:15:54;;;;;;;1.10;1.00;;;15.60;76.90;;;;;;5053434;28;20029;-88
2023/01/01 09:18:20;;;;;;;1.13;0.80;;;15.50;76.80;;;;;;5053667;28;20052;-88
2023/01/01 09:20:46;;;;;;;1.08;0.90;;;15.50;76.80;;;;;;5053791;28;20033;-90
2023/01/01 09:23:12;;;;;;;1.45;1.00;;;15.60;76.90;;;;;;5053607;28;20115;-87
2023/01/01 09:25:38;;;;;;;2.42;1.10;;;15.50;76.80;;;;;;5055223;28;20051;-85
2023/01/01 09:28:11;;;;;;;1.83;1.00;;;15.50;76.80;;;;;;5053516;28;20033;-86
2023/01/01 09:30:37;;;;;;;1.98;0.95;;;15.50;76.80;;;;;;5053650;28;20060;-83
2023/01/01 09:33:03;;;;;;;1.15;0.90;;;15.50;76.90;;;;;;5053439;28;20112;-88
2023/01/01 09:35:30;;;;;;;0.90;0.90;;;15.50;76.90;;;;;;5053417;28;20036;-87
2023/01/01 09:37:56;;;;;;;1.00;0.90;;;15.50;76.90;;;;;;5070734;28;20025;-83
2023/01/01 09:40:42;;;;;;;1.48;0.90;;;15.40;76.90;;;;;;5054061;28;20044;-83
2023/01/01 09:43:14;;;;;;;1.70;1.20;;;15.50;77.00;;;;;;5052991;28;20200;-84
2023/01/01 09:46:05;;;;;;;0.82;0.80;;;15.40;76.90;;;;;;5053068;28;20033;-86
2023/01/01 09:48:32;;;;;;;2.08;1.15;;;15.40;77.00;;;;;;5053233;28;20028;-86
2023/01/01 09:51:00;;;;;;;1.55;1.00;;;15.40;76.90;;;;;;5052964;28;20025;-85
2023/01/01 09:53:30;;;;;;;1.20;0.90;;;15.40;77.00;;;;;;5052423;28;20041;-85
2023/01/01 09:55:58;;;;;;;1.20;1.10;;;15.40;77.00;;;;;;5070330;28;20035;-83
2023/01/01 09:58:42;;;;;;;0.90;0.90;;;15.40;77.00;;;;;;5087730;28;20393;-86
2023/01/01 10:01:35;;;;;;;1.17;1.00;;;15.30;77.00;;;;;;5053084;28;20029;-85
2023/01/01 10:04:10;;;;;;;2.03;1.00;;;15.40;77.00;;;;;;5052868;28;20067;-84
2023/01/01 10:06:39;;;;;;;;;;;15.40;77.00;;;;;;5053232;28;20049;-85
2023/01/01 10:09:40;;;;;;;0.95;0.90;;;15.30;77.00;;;;;;5070395;28;19911;-85
2023/01/01 10:12:24;;;;;;;1.27;1.08;;;15.40;77.00;;;;;;5035563;28;20060;-84
2023/01/01 10:14:56;;;;;;;0.80;0.80;;;15.30;77.00;;;;;;5070025;28;20471;-85
2023/01/01 10:17:40;;;;;;;1.52;1.02;;;15.30;77.00;;;;;;5053009;28;20029;-87
2023/01/01 10:20:17;;;;;;;0.83;0.70;;;15.30;77.10;;;;;;5053124;28;20029;-87
2023/01/01 10:22:47;;;;;;;1.13;0.90;;;15.30;77.10;;;;;;5052890;28;20307;-87
2023/01/01 10:25:24;;;;;;;1.58;1.20;;;15.30;77.10;;;;;;5052625;28;20524;-88
2023/01/01 10:28:03;;;;;;;2.22;1.17;;;15.30;77.10;;;;;;5052973;28;20071;-83
2023/01/01 10:30:29;;;;;;;2.60;1.23;;;15.30;77.10;;;;;;5052665;28;20048;-86
2023/01/01 10:32:56;;;;;;;1.50;1.08;;;15.30;77.10;;;;;;5036306;28;20040;-85
2023/01/01 10:35:42;;;;;;;1.20;1.10;;;15.30;77.20;;;;;;5052627;28;20143;-81
2023/01/01 10:38:31;;;;;;;1.42;1.17;;;15.30;77.20;;;;;;5069301;28;20117;-85
2023/01/01 10:41:05;;;;;;;1.30;1.13;;;15.30;77.20;;;;;;5084942;28;20103;-84
2023/01/01 10:43:31;;;;;;;1.13;1.00;;;15.30;77.20;;;;;;5052456;28;20058;-84
2023/01/01 10:46:00;;;;;;;1.75;1.10;;;15.30;77.20;;;;;;5069146;28;20032;-84
2023/01/01 10:48:31;;;;;;;1.58;1.20;;;15.30;77.20;;;;;;5052126;28;20029;-82
2023/01/01 10:50:58;;;;;;;1.63;1.10;;;15.30;77.80;;;;;;5052793;28;20021;-84
2023/01/01 10:53:38;;;;;;;2.15;1.13;;;15.30;77.30;;;;;;5055628;28;20032;-84
2023/01/01 10:56:12;;;;;;;2.10;1.17;;;15.30;77.30;;;;;;5056764;28;20048;-84
2023/01/01 10:58:40;;;;;;;1.23;1.05;;;15.20;77.20;;;;;;5056290;28;20466;-84
2023/01/01 11:01:12;;;;;;;1.85;1.05;;;15.30;77.30;;;;;;5055544;28;20025;-84
2023/01/01 11:04:01;;;;;;;1.20;1.10;;;15.20;77.20;;;;;;5056267;28;20037;-84
2023/01/01 11:06:40;;;;;;;1.25;1.10;;;15.20;77.30;;;;;;5056953;28;20021;-84
2023/01/01 11:09:26;;;;;;;1.45;0.90;;;15.20;77.20;;;;;;5056172;28;20024;-84
2023/01/01 11:12:02;;;;;;;1.02;0.93;;;15.20;77.30;;;;;;5056234;28;20079;-85
2023/01/01 11:14:53;;;;;;;2.35;1.10;;;15.20;77.30;;;;;;5055948;28;20037;-84
2023/01/01 11:17:29;;;;;;;1.40;1.00;;;15.20;77.30;;;;;;5055870;28;20021;-85
2023/01/01 11:19:57;;;;;;;1.48;0.90;;;15.20;77.30;;;;;;5055393;28;20029;-84
2023/01/01 11:22:50;;;;;;;2.15;1.15;;;15.20;77.30;;;;;;5055444;28;20017;-85
2023/01/01 11:25:21;;;;;;;2.15;1.30;;;15.20;77.40;;;;;;5056741;28;20059;-84
2023/01/01 11:27:49;;;;;;;1.45;1.10;;;15.20;77.30;;;;;;5055333;28;20040;-84
2023/01/01 11:30:25;;;;;;;2.05;1.02;;;15.20;77.30;;;;;;5072034;28;20025;-83
2023/01/01 11:33:01;;;;;;;1.30;1.02;;;15.20;77.40;;;;;;5055047;28;20029;-84
2023/01/01 11:35:36;;;;;;;1.92;1.17;;;15.20;77.40;;;;;;5056207;28;20486;-84
2023/01/01 11:38:03;;;;;;;1.20;1.10;;;15.20;77.40;;;;;;5089040;28;20028;-85
2023/01/01 11:40:44;;;;;;;1.80;1.10;;;15.10;77.30;;;;;;5038338;28;20029;-84
2023/01/01 11:43:20;;;;;;;1.75;1.00;;;15.20;77.50;;;;;;5055325;28;20037;-84
2023/01/01 11:45:47;;;;;;;1.10;1.00;;;15.20;77.50;;;;;;5055299;28;20067;-84
2023/01/01 11:48:26;;;;;;;2.70;1.35;;;15.20;77.40;;;;;;5054926;28;20083;-83
2023/01/01 11:51:00;;;;;;;2.17;1.10;;;15.20;77.50;;;;;;5056817;28;20033;-84
2023/01/01 11:53:30;;;;;;;1.25;1.08;;;15.20;77.50;;;;;;5055318;28;20045;-84
2023/01/01 11:56:15;;;;;;;1.50;1.10;;;15.10;77.50;;;;;;5055355;28;20029;-84
2023/01/01 11:59:13;;;;;;;1.25;1.15;;;15.20;77.50;;;;;;5071301;28;20044;-84
2023/01/01 12:01:43;;;;;;;1.55;1.15;;;15.10;77.50;;;;;;5054390;28;20041;-85
2023/01/01 12:04:36;;;;;;;2.63;1.63;;;15.20;77.50;;;;;;5054029;28;20032;-84
2023/01/01 12:07:09;;;;;;;2.25;1.27;;;15.20;77.50;;;;;;5053823;28;20036;-84
2023/01/01 12:10:02;;;;;;;1.48;1.13;;;15.10;77.50;;;;;;5054641;28;20421;-84
2023/01/01 12:13:02;;;;;;;2.67;1.60;;;15.20;77.60;;;;;;5072154;28;20089;-85
2023/01/01 12:15:51;;;;;;;2.00;1.10;;;15.10;77.60;;;;;;5056279;28;20115;-84
2023/01/01 12:18:46;;;;;;;2.35;1.30;;;15.20;77.60;;;;;;5054240;28;20045;-84
2023/01/01 12:21:22;;;;;;;1.88;1.40;;;15.10;77.50;;;;;;5055565;28;20083;-84
2023/01/01 12:23:48;;;;;;;1.20;1.10;;;15.10;77.50;;;;;;5054819;28;20032;-84
2023/01/01 12:26:32;;;;;;;2.53;1.15;;;15.20;77.50;;;;;;5038172;28;20021;-84
2023/01/01 12:29:09;;;;;;;1.40;1.10;;;15.20;77.60;;;;;;5054544;28;20040;-85
2023/01/01 12:32:16;;;;;;;1.58;1.10;;;15.20;77.60;;;;;;5054829;28;20029;-85
2023/01/01 12:35:27;;;;;;;1.20;1.10;;;15.20;77.60;;;;;;5053902;28;20076;-84
2023/01/01 12:38:26;;;;;;;1.80;1.20;;;15.20;77.60;;;;;;5078324;28;20466;-84
2023/01/01 12:41:14;;;;;;;1.83;1.30;;;15.20;77.60;;;;;;5055503;28;20053;-84
2023/01/01 12:43:51;;;;;;;1.73;1.30;;;15.20;77.60;;;;;;5054593;28;20029;-84
2023/01/01 12:46:22;;;;;;;1.55;1.38;;;15.20;77.60;;;;;;5087606;28;20031;-84
2023/01/01 12:49:06;;;;;;;3.05;1.40;;;15.20;77.60;;;;;;5054961;28;20029;-84
2023/01/01 12:51:35;;;;;;;2.38;1.50;;;15.20;77.70;;;;;;5070911;28;20033;-86
2023/01/01 12:54:04;;;;;;;2.70;1.33;;;15.20;77.70;;;;;;5054437;28;20523;-83
2023/01/01 12:56:56;;;;;;;2.10;1.55;;;15.20;77.60;;;;;;5055232;28;20032;-84
2023/01/01 12:59:27;;;;;;;2.08;1.40;;;15.20;77.70;;;;;;5053992;28;20025;-84
2023/01/01 13:01:59;;;;;;;2.67;1.50;;;15.20;77.60;;;;;;5070519;28;20037;-85
2023/01/01 13:04:25;;;;;;;2.38;1.38;;;15.20;77.70;;;;;;5053793;28;20033;-84
2023/01/01 13:07:04;;;;;;;1.58;1.35;;;15.30;77.70;;;;;;5053774;28;20061;-84
2023/01/01 13:09:47;;;;;;;4.80;1.70;;;15.20;77.70;;;;;;5054140;28;20033;-83
2023/01/01 13:12:20;;;;;;;3.03;1.60;;;15.20;77.70;;;;;;5070509;28;20531;-83
2023/01/01 13:14:50;;;;;;;1.67;1.40;;;15.30;77.70;;;;;;5052691;28;20037;-83
2023/01/01 13:17:20;;;;;;;2.90;1.40;;;15.30;77.70;;;;;;5053598;28;20037;-84